createdAt,value
2019-05-09T00:00:37.893Z,12.56
2019-05-09T00:03:04.512Z,12.55
2019-05-09T00:05:32.981Z,12.55
2019-05-09T00:07:59.398Z,12.54
2019-05-09T00:10:38.564Z,12.54
2019-05-09T00:12:54.324Z,12.52
2019-05-09T00:15:20.903Z,12.51
2019-05-09T00:17:47.478Z,12.50
2019-05-09T00:20:14.084Z,12.47
2019-05-09T00:22:40.667Z,12.46
2019-05-09T00:25:07.274Z,12.45
2019-05-09T00:27:33.853Z,12.42
2019-05-09T00:30:00.449Z,12.40
2019-05-09T00:32:27.021Z,12.37
2019-05-09T00:34:53.619Z,12.36
2019-05-09T00:37:20.191Z,12.33
2019-05-09T00:39:46.888Z,12.32
2019-05-09T00:42:13.806Z,12.30
2019-05-09T00:44:40.554Z,12.28
2019-05-09T00:47:07.166Z,12.26
2019-05-09T00:49:34.179Z,12.25
2019-05-09T00:52:03.364Z,12.23
2019-05-09T00:54:29.259Z,12.22
2019-05-09T00:56:55.837Z,12.21
2019-05-09T00:59:24.076Z,12.19
2019-05-09T01:01:50.890Z,12.19
2019-05-09T01:04:17.491Z,12.19
2019-05-09T01:06:44.064Z,12.18
2019-05-09T01:09:10.665Z,12.17
2019-05-09T01:11:37.233Z,12.14
2019-05-09T01:14:03.917Z,12.13
2019-05-09T01:16:30.474Z,12.12
2019-05-09T01:18:57.083Z,12.11
2019-05-09T01:21:24.118Z,12.09
2019-05-09T01:23:50.937Z,12.08
2019-05-09T01:26:17.497Z,12.06
2019-05-09T01:28:44.337Z,12.04
2019-05-09T01:31:13.130Z,12.05
2019-05-09T01:33:39.305Z,12.02
2019-05-09T01:36:05.871Z,12.01
2019-05-09T01:38:33.915Z,12.01
2019-05-09T01:41:00.718Z,12.00
2019-05-09T01:43:27.302Z,12.00
2019-05-09T01:45:54.125Z,12.00
2019-05-09T01:48:20.843Z,12.00
2019-05-09T01:50:47.467Z,11.99
2019-05-09T01:53:14.072Z,11.98
2019-05-09T01:55:43.162Z,12.00
2019-05-09T01:58:09.356Z,12.00
2019-05-09T02:00:35.944Z,12.00
2019-05-09T02:03:03.290Z,12.00
2019-05-09T02:05:30.014Z,12.01
2019-05-09T02:07:56.596Z,12.01
2019-05-09T02:10:23.357Z,12.01
2019-05-09T02:12:49.956Z,12.02
2019-05-09T02:15:16.539Z,12.01
2019-05-09T02:17:57.366Z,12.02
2019-05-09T02:20:13.574Z,12.03
2019-05-09T02:22:39.755Z,12.03
2019-05-09T02:25:06.339Z,12.03
2019-05-09T02:27:33.308Z,12.03
2019-05-09T02:30:00.089Z,12.04
2019-05-09T02:32:26.666Z,12.05
2019-05-09T02:34:54.764Z,12.05
2019-05-09T02:37:21.635Z,12.04
2019-05-09T02:39:49.097Z,12.02
2019-05-09T02:42:19.302Z,12.04
2019-05-09T02:44:44.176Z,12.04
2019-05-09T02:47:10.754Z,12.06
2019-05-09T02:49:39.012Z,12.07
2019-05-09T02:52:08.415Z,12.09
2019-05-09T02:54:33.978Z,12.09
2019-05-09T02:57:00.572Z,12.10
2019-05-09T02:59:29.689Z,12.12
2019-05-09T03:01:58.328Z,12.12
2019-05-09T03:04:23.797Z,12.14
2019-05-09T03:06:50.409Z,12.13
2019-05-09T03:09:19.032Z,12.14
2019-05-09T03:11:48.304Z,12.14
2019-05-09T03:14:13.595Z,12.15
2019-05-09T03:16:40.230Z,12.16
2019-05-09T03:19:09.045Z,12.18
2019-05-09T03:21:38.753Z,12.18
2019-05-09T03:24:03.480Z,12.20
2019-05-09T03:26:30.166Z,12.22
2019-05-09T03:28:59.084Z,12.25
2019-05-09T03:31:25.053Z,12.27
2019-05-09T03:33:51.620Z,12.29
2019-05-09T03:36:18.273Z,12.32
2019-05-09T03:38:44.978Z,12.34
2019-05-09T03:41:11.593Z,12.38
2019-05-09T03:43:38.164Z,12.40
2019-05-09T03:46:04.759Z,12.42
2019-05-09T03:48:31.339Z,12.45
2019-05-09T03:50:57.937Z,12.48
2019-05-09T03:53:24.502Z,12.51
2019-05-09T03:55:51.122Z,12.54
2019-05-09T03:58:18.530Z,12.55
2019-05-09T04:00:45.269Z,12.56
2019-05-09T04:03:11.850Z,12.60
2019-05-09T04:05:38.458Z,12.61
2019-05-09T04:08:07.307Z,12.65
2019-05-09T04:10:33.391Z,12.67
2019-05-09T04:13:00.028Z,12.70
2019-05-09T04:15:27.499Z,12.72
2019-05-09T04:17:54.292Z,12.74
2019-05-09T04:20:20.938Z,12.77
2019-05-09T04:22:49.049Z,12.81
2019-05-09T04:25:17.974Z,12.82
2019-05-09T04:27:44.242Z,12.86
2019-05-09T04:30:10.815Z,12.88
2019-05-09T04:32:37.752Z,12.90
2019-05-09T04:35:04.364Z,12.92
2019-05-09T04:37:31.212Z,12.94
2019-05-09T04:39:59.534Z,12.95
2019-05-09T04:42:28.254Z,12.98
2019-05-09T04:44:57.679Z,13.00
2019-05-09T04:47:22.893Z,13.04
2019-05-09T04:49:49.573Z,13.05
2019-05-09T04:52:18.061Z,13.08
2019-05-09T04:54:44.483Z,13.12
2019-05-09T04:57:11.097Z,13.14
2019-05-09T04:59:37.668Z,13.18
2019-05-09T05:02:04.262Z,13.21
2019-05-09T05:04:30.833Z,13.25
2019-05-09T05:06:58.554Z,13.27
2019-05-09T05:09:27.559Z,13.31
2019-05-09T05:11:53.702Z,13.35
2019-05-09T05:14:20.308Z,13.38
2019-05-09T05:16:53.400Z,13.42
2019-05-09T05:19:17.546Z,13.44
2019-05-09T05:21:43.532Z,13.47
2019-05-09T05:24:10.159Z,13.49
2019-05-09T05:26:38.075Z,13.52
2019-05-09T05:29:04.857Z,13.55
2019-05-09T05:31:31.457Z,13.56
2019-05-09T05:33:58.117Z,13.58
2019-05-09T05:36:24.705Z,13.60
2019-05-09T05:38:54.509Z,13.60
2019-05-09T05:41:21.090Z,13.61
2019-05-09T05:43:48.033Z,13.60
2019-05-09T05:46:14.683Z,13.60
2019-05-09T05:48:41.305Z,13.60
2019-05-09T05:51:08.199Z,13.58
2019-05-09T05:53:34.962Z,13.58
2019-05-09T05:56:01.572Z,13.59
2019-05-09T05:58:28.416Z,13.61
2019-05-09T06:00:55.073Z,13.65
2019-05-09T06:03:21.690Z,13.70
2019-05-09T06:05:51.586Z,13.73
2019-05-09T06:08:17.461Z,13.78
2019-05-09T06:10:44.200Z,13.84
2019-05-09T06:13:10.812Z,13.90
2019-05-09T06:15:38.027Z,13.98
2019-05-09T06:18:04.753Z,14.05
2019-05-09T06:20:31.373Z,14.13
2019-05-09T06:22:58.275Z,14.19
2019-05-09T06:25:25.087Z,14.24
2019-05-09T06:27:51.668Z,14.29
2019-05-09T06:30:18.266Z,14.33
2019-05-09T06:32:44.838Z,14.36
2019-05-09T06:35:11.443Z,14.38
2019-05-09T06:37:38.387Z,14.42
2019-05-09T06:40:05.011Z,14.43
2019-05-09T06:42:31.743Z,14.43
2019-05-09T06:44:58.536Z,14.44
2019-05-09T06:47:27.626Z,14.46
2019-05-09T06:49:53.616Z,14.48
2019-05-09T06:52:20.189Z,14.51
2019-05-09T06:54:48.625Z,14.53
2019-05-09T06:57:15.103Z,14.56
2019-05-09T06:59:48.795Z,14.60
2019-05-09T07:02:18.597Z,14.60
2019-05-09T07:04:47.751Z,14.65
2019-05-09T07:07:14.477Z,14.65
2019-05-09T07:09:41.075Z,14.66
2019-05-09T07:12:08.015Z,14.65
2019-05-09T07:14:38.226Z,14.67
2019-05-09T07:17:03.024Z,14.70
2019-05-09T07:19:29.713Z,14.72
2019-05-09T07:21:57.984Z,14.77
2019-05-09T07:24:24.701Z,14.76
2019-05-09T07:26:51.327Z,14.77
2019-05-09T07:29:17.994Z,14.75
2019-05-09T07:31:44.593Z,14.73
2019-05-09T07:34:11.218Z,14.71
2019-05-09T07:36:38.493Z,14.71
2019-05-09T07:39:05.166Z,14.71
2019-05-09T07:41:34.858Z,14.72
2019-05-09T07:44:03.169Z,14.72
2019-05-09T07:46:29.755Z,14.75
2019-05-09T07:48:57.790Z,14.74
2019-05-09T07:51:24.730Z,14.74
2019-05-09T07:53:51.317Z,14.75
2019-05-09T07:56:18.642Z,14.75
2019-05-09T07:58:47.615Z,14.73
2019-05-09T08:01:13.860Z,14.69
2019-05-09T08:03:40.481Z,14.66
2019-05-09T08:06:08.633Z,14.63
2019-05-09T08:08:38.224Z,14.64
2019-05-09T08:11:03.999Z,14.65
2019-05-09T08:13:30.574Z,14.65
2019-05-09T08:15:58.499Z,14.64
2019-05-09T08:18:25.344Z,14.60
2019-05-09T08:20:51.952Z,14.57
2019-05-09T08:23:19.925Z,14.57
2019-05-09T08:25:48.505Z,14.58
2019-05-09T08:28:14.849Z,14.61
2019-05-09T08:30:41.449Z,14.64
2019-05-09T08:33:08.488Z,14.69
2019-05-09T08:35:35.217Z,14.71
2019-05-09T08:38:01.792Z,14.73
2019-05-09T08:40:28.698Z,14.75
2019-05-09T08:42:59.001Z,14.76
2019-05-09T08:45:30.816Z,14.76
2019-05-09T08:47:54.049Z,14.73
2019-05-09T08:50:20.723Z,14.71
2019-05-09T08:52:48.158Z,14.70
2019-05-09T08:55:17.349Z,14.68
2019-05-09T08:57:43.257Z,14.65
2019-05-09T09:00:10.745Z,14.63
2019-05-09T09:02:37.762Z,14.59
2019-05-09T09:05:04.478Z,14.56
2019-05-09T09:07:33.171Z,14.52
2019-05-09T09:09:59.517Z,14.51
2019-05-09T09:12:33.832Z,14.49
2019-05-09T09:14:54.491Z,14.47
2019-05-09T09:17:21.086Z,14.50
2019-05-09T09:19:48.017Z,14.50
2019-05-09T09:22:14.705Z,14.50
2019-05-09T09:24:43.308Z,14.52
2019-05-09T09:27:09.688Z,14.50
2019-05-09T09:29:38.047Z,14.49
2019-05-09T09:32:08.068Z,14.48
2019-05-09T09:34:34.234Z,14.48
2019-05-09T09:37:04.175Z,14.45
2019-05-09T09:39:31.379Z,14.44
2019-05-09T09:41:58.773Z,14.45
2019-05-09T09:44:25.542Z,14.46
2019-05-09T09:46:52.240Z,14.49
2019-05-09T09:49:18.808Z,14.51
2019-05-09T09:51:45.411Z,14.53
2019-05-09T09:54:18.631Z,14.55
2019-05-09T09:56:40.330Z,14.55
2019-05-09T09:59:08.179Z,14.57
2019-05-09T10:01:34.905Z,14.57
2019-05-09T10:04:15.702Z,14.60
2019-05-09T10:06:29.943Z,14.63
2019-05-09T10:08:57.988Z,14.66
2019-05-09T10:11:28.646Z,14.67
2019-05-09T10:13:53.115Z,14.71
2019-05-09T10:16:28.725Z,14.72
2019-05-09T10:18:48.068Z,14.74
2019-05-09T10:21:14.639Z,14.77
2019-05-09T10:23:48.382Z,14.80
2019-05-09T10:26:17.655Z,14.82
2019-05-09T10:28:45.411Z,14.85
2019-05-09T10:31:11.789Z,14.88
2019-05-09T10:33:38.424Z,14.92
2019-05-09T10:36:05.196Z,14.97
2019-05-09T10:38:31.934Z,15.05
2019-05-09T10:41:01.194Z,15.10
2019-05-09T10:43:35.644Z,15.17
2019-05-09T10:45:57.683Z,15.23
2019-05-09T10:48:24.116Z,15.32
2019-05-09T10:50:54.343Z,15.37
2019-05-09T10:53:19.286Z,15.42
2019-05-09T10:55:47.990Z,15.47
2019-05-09T10:58:14.218Z,15.51
2019-05-09T11:00:40.823Z,15.59
2019-05-09T11:03:10.323Z,15.66
2019-05-09T11:05:37.005Z,15.75
2019-05-09T11:08:07.936Z,15.85
2019-05-09T11:10:35.856Z,15.95
2019-05-09T11:13:02.615Z,16.04
2019-05-09T11:15:29.190Z,16.13
2019-05-09T11:17:57.698Z,16.25
2019-05-09T11:20:24.104Z,16.36
2019-05-09T11:22:50.700Z,16.49
2019-05-09T11:25:17.274Z,16.70
2019-05-09T11:27:45.431Z,16.96
2019-05-09T11:30:12.050Z,17.22
2019-05-09T11:32:41.234Z,17.38
2019-05-09T11:35:09.054Z,17.46
2019-05-09T11:37:38.189Z,17.52
2019-05-09T11:40:06.235Z,17.58
2019-05-09T11:42:33.492Z,17.55
2019-05-09T11:45:00.670Z,17.50
2019-05-09T11:47:36.407Z,17.41
2019-05-09T11:49:57.853Z,17.34
2019-05-09T11:52:23.981Z,17.26
2019-05-09T11:54:50.573Z,17.18
2019-05-09T11:57:19.159Z,17.10
2019-05-09T11:59:47.909Z,17.04
2019-05-09T12:02:13.846Z,16.97
2019-05-09T12:04:40.502Z,16.90
2019-05-09T12:07:07.957Z,16.84
2019-05-09T12:09:34.866Z,16.79
2019-05-09T12:12:03.968Z,16.75
2019-05-09T12:14:30.587Z,16.72
2019-05-09T12:16:57.165Z,16.70
2019-05-09T12:19:23.770Z,16.64
2019-05-09T12:22:02.797Z,16.59
2019-05-09T12:24:29.734Z,16.55
2019-05-09T12:26:57.652Z,16.47
2019-05-09T12:29:24.861Z,16.41
2019-05-09T12:31:53.030Z,16.33
2019-05-09T12:34:19.754Z,16.27
2019-05-09T12:36:49.294Z,16.23
2019-05-09T12:39:14.657Z,16.17
2019-05-09T12:41:41.269Z,16.10
2019-05-09T12:44:08.821Z,16.06
2019-05-09T12:46:39.059Z,16.01
2019-05-09T12:49:04.247Z,15.97
2019-05-09T12:51:30.883Z,15.92
2019-05-09T12:53:57.985Z,15.87
2019-05-09T12:56:24.761Z,15.81
2019-05-09T12:58:53.682Z,15.77
2019-05-09T13:01:20.301Z,15.71
2019-05-09T13:03:48.506Z,15.66
2019-05-09T13:06:19.567Z,15.62
2019-05-09T13:08:43.646Z,15.59
2019-05-09T13:11:10.222Z,15.54
2019-05-09T13:13:41.022Z,15.50
2019-05-09T13:16:05.243Z,15.48
2019-05-09T13:18:31.935Z,15.45
2019-05-09T13:20:58.523Z,15.43
2019-05-09T13:23:25.127Z,15.41
2019-05-09T13:25:51.696Z,15.38
2019-05-09T13:28:18.330Z,15.36
2019-05-09T13:30:44.904Z,15.34
2019-05-09T13:33:11.488Z,15.34
2019-05-09T13:35:39.275Z,15.36
2019-05-09T13:38:08.736Z,15.37
2019-05-09T13:40:36.104Z,15.39
2019-05-09T13:43:02.644Z,15.41
2019-05-09T13:45:29.368Z,15.42
2019-05-09T13:47:57.913Z,15.44
2019-05-09T13:50:24.266Z,15.45
2019-05-09T13:52:50.835Z,15.45
2019-05-09T13:55:17.959Z,15.45
2019-05-09T13:57:44.701Z,15.45
2019-05-09T14:00:11.315Z,15.44
2019-05-09T14:02:38.590Z,15.42
2019-05-09T14:05:08.601Z,15.41
2019-05-09T14:07:33.595Z,15.41
2019-05-09T14:10:00.220Z,15.38
2019-05-09T14:12:28.958Z,15.37
2019-05-09T14:14:55.130Z,15.35
2019-05-09T14:17:41.751Z,15.33
2019-05-09T14:19:51.097Z,15.33
2019-05-09T14:22:18.198Z,15.32
2019-05-09T14:24:44.823Z,15.32
2019-05-09T14:27:11.406Z,15.30
2019-05-09T14:29:41.043Z,15.30
2019-05-09T14:32:10.803Z,15.28
2019-05-09T14:34:39.013Z,15.28
2019-05-09T14:37:09.284Z,15.26
2019-05-09T14:39:34.057Z,15.27
2019-05-09T14:42:02.705Z,15.26
2019-05-09T14:44:29.316Z,15.26
2019-05-09T14:46:58.211Z,15.25
2019-05-09T14:49:39.428Z,15.24
2019-05-09T14:51:52.694Z,15.23
2019-05-09T14:54:19.315Z,15.21
2019-05-09T14:56:48.367Z,15.19
2019-05-09T14:59:14.229Z,15.16
2019-05-09T15:01:43.825Z,15.13
2019-05-09T15:04:09.237Z,15.10
2019-05-09T15:06:35.810Z,15.09
2019-05-09T15:09:02.394Z,15.07
2019-05-09T15:11:31.209Z,15.06
2019-05-09T15:13:58.447Z,15.02
2019-05-09T15:16:28.029Z,15.00
2019-05-09T15:18:53.758Z,14.98
2019-05-09T15:21:20.376Z,14.96
2019-05-09T15:23:48.137Z,14.98
2019-05-09T15:26:14.919Z,14.99
2019-05-09T15:28:41.493Z,14.99
2019-05-09T15:31:08.823Z,14.98
2019-05-09T15:33:37.501Z,14.96
2019-05-09T15:36:03.990Z,14.95
2019-05-09T15:38:30.567Z,14.96
2019-05-09T15:40:57.605Z,14.94
2019-05-09T15:43:24.465Z,14.93
2019-05-09T15:45:51.078Z,14.92
2019-05-09T15:48:18.147Z,14.92
2019-05-09T15:50:44.935Z,14.91
2019-05-09T15:53:11.600Z,14.90
2019-05-09T15:55:38.219Z,14.91
2019-05-09T15:58:04.799Z,14.94
2019-05-09T16:00:31.411Z,14.97
2019-05-09T16:02:58.953Z,14.99
2019-05-09T16:05:25.875Z,15.00
2019-05-09T16:07:52.560Z,15.01
2019-05-09T16:10:19.163Z,15.04
2019-05-09T16:12:48.458Z,15.08
2019-05-09T16:15:14.092Z,15.14
2019-05-09T16:17:40.708Z,15.19
2019-05-09T16:20:08.588Z,15.25
2019-05-09T16:22:35.246Z,15.30
2019-05-09T16:25:01.869Z,15.37
2019-05-09T16:27:28.450Z,15.44
2019-05-09T16:29:55.070Z,15.50
2019-05-09T16:32:21.726Z,15.53
2019-05-09T16:34:48.353Z,15.56
2019-05-09T16:37:14.938Z,15.57
2019-05-09T16:39:41.550Z,15.58
2019-05-09T16:42:08.127Z,15.60
2019-05-09T16:44:34.710Z,15.61
2019-05-09T16:47:01.338Z,15.63
2019-05-09T16:49:29.191Z,15.63
2019-05-09T16:51:58.155Z,15.62
2019-05-09T16:54:24.527Z,15.60
2019-05-09T16:56:51.144Z,15.54
2019-05-09T16:59:18.163Z,15.48
2019-05-09T17:01:47.522Z,15.45
2019-05-09T17:04:13.276Z,15.40
2019-05-09T17:06:39.952Z,15.33
2019-05-09T17:09:08.429Z,15.29
2019-05-09T17:11:34.888Z,15.21
2019-05-09T17:14:01.467Z,15.14
2019-05-09T17:16:28.485Z,15.05
2019-05-09T17:18:57.983Z,14.95
2019-05-09T17:21:24.502Z,14.88
2019-05-09T17:23:51.219Z,14.77
2019-05-09T17:26:17.826Z,14.66
2019-05-09T17:28:44.407Z,14.59
2019-05-09T17:31:11.242Z,14.51
2019-05-09T17:33:38.070Z,14.42
2019-05-09T17:36:04.775Z,14.33
2019-05-09T17:38:31.355Z,14.25
2019-05-09T17:41:00.092Z,14.16
2019-05-09T17:43:27.776Z,14.10
2019-05-09T17:45:54.841Z,14.05
2019-05-09T17:48:21.414Z,14.01
2019-05-09T17:50:48.036Z,13.96
2019-05-09T17:53:14.662Z,13.90
2019-05-09T17:55:41.592Z,13.84
2019-05-09T17:58:08.930Z,13.81
2019-05-09T18:00:37.888Z,13.77
2019-05-09T18:03:04.057Z,13.75
2019-05-09T18:05:30.996Z,13.72
2019-05-09T18:07:57.942Z,13.70
2019-05-09T18:10:24.716Z,13.68
2019-05-09T18:12:51.352Z,13.68
2019-05-09T18:15:18.652Z,13.69
2019-05-09T18:17:47.728Z,13.68
2019-05-09T18:20:13.811Z,13.70
2019-05-09T18:22:41.465Z,13.70
2019-05-09T18:25:08.397Z,13.70
2019-05-09T18:27:35.108Z,13.71
2019-05-09T18:30:01.684Z,13.72
2019-05-09T18:32:28.284Z,13.72
2019-05-09T18:34:54.857Z,13.71
2019-05-09T18:37:21.468Z,13.69
2019-05-09T18:39:48.520Z,13.70
2019-05-09T18:42:15.209Z,13.70
2019-05-09T18:44:41.787Z,13.71
2019-05-09T18:47:08.394Z,13.68
2019-05-09T18:49:34.975Z,13.66
2019-05-09T18:52:04.099Z,13.63
2019-05-09T18:54:29.896Z,13.62
2019-05-09T18:56:56.484Z,13.59
2019-05-09T18:59:23.057Z,13.57
2019-05-09T19:01:49.663Z,13.55
2019-05-09T19:04:16.247Z,13.52
2019-05-09T19:06:43.197Z,13.49
2019-05-09T19:09:09.777Z,13.47
2019-05-09T19:11:38.046Z,13.45
2019-05-09T19:14:04.737Z,13.44
2019-05-09T19:16:31.334Z,13.42
2019-05-09T19:18:57.914Z,13.40
2019-05-09T19:21:24.524Z,13.39
2019-05-09T19:23:51.093Z,13.38
2019-05-09T19:26:17.670Z,13.36
2019-05-09T19:28:44.295Z,13.34
2019-05-09T19:31:10.875Z,13.33
2019-05-09T19:33:37.480Z,13.32
2019-05-09T19:36:04.052Z,13.30
2019-05-09T19:38:30.642Z,13.30
2019-05-09T19:40:57.231Z,13.30
2019-05-09T19:43:23.828Z,13.30
2019-05-09T19:45:50.397Z,13.31
2019-05-09T19:48:17.015Z,13.32
2019-05-09T19:50:43.583Z,13.30
2019-05-09T19:53:10.394Z,13.27
2019-05-09T19:55:37.027Z,13.26
2019-05-09T19:58:03.646Z,13.25
2019-05-09T20:00:30.201Z,13.21
2019-05-09T20:02:56.818Z,13.19
2019-05-09T20:05:23.481Z,13.17
2019-05-09T20:07:52.551Z,13.15
2019-05-09T20:10:19.131Z,13.12
2019-05-09T20:12:45.742Z,13.09
2019-05-09T20:15:12.353Z,13.08
2019-05-09T20:17:39.094Z,13.08
2019-05-09T20:20:05.691Z,13.06
2019-05-09T20:22:32.274Z,13.05
2019-05-09T20:24:58.856Z,13.05
2019-05-09T20:27:25.464Z,13.03
2019-05-09T20:29:52.064Z,13.02
2019-05-09T20:32:18.757Z,12.99
2019-05-09T20:34:45.317Z,12.99
2019-05-09T20:37:11.888Z,12.96
2019-05-09T20:39:38.488Z,12.95
2019-05-09T20:42:05.061Z,12.92
2019-05-09T20:44:31.656Z,12.88
2019-05-09T20:46:58.305Z,12.86
2019-05-09T20:49:24.997Z,12.84
2019-05-09T20:51:51.675Z,12.84
2019-05-09T20:54:21.193Z,12.85
2019-05-09T20:56:46.565Z,12.87
2019-05-09T20:59:13.160Z,12.86
2019-05-09T21:01:39.742Z,12.87
2019-05-09T21:04:06.530Z,12.87
2019-05-09T21:06:33.176Z,12.89
2019-05-09T21:08:59.787Z,12.91
2019-05-09T21:11:26.354Z,12.90
2019-05-09T21:13:52.951Z,12.91
2019-05-09T21:16:19.530Z,12.90
2019-05-09T21:18:46.261Z,12.90
2019-05-09T21:21:12.845Z,12.91
2019-05-09T21:23:39.436Z,12.90
2019-05-09T21:26:06.012Z,12.89
2019-05-09T21:28:32.605Z,12.88
2019-05-09T21:30:59.187Z,12.87
2019-05-09T21:33:25.806Z,12.86
2019-05-09T21:35:52.379Z,12.84
2019-05-09T21:38:19.002Z,12.80
2019-05-09T21:40:45.595Z,12.79
2019-05-09T21:43:12.195Z,12.77
2019-05-09T21:45:38.783Z,12.77
2019-05-09T21:48:05.401Z,12.76
2019-05-09T21:50:31.984Z,12.76
2019-05-09T21:52:58.582Z,12.76
2019-05-09T21:55:25.157Z,12.75
2019-05-09T21:57:51.772Z,12.75
2019-05-09T22:00:18.347Z,12.74
2019-05-09T22:02:44.917Z,12.73
2019-05-09T22:05:11.532Z,12.72
2019-05-09T22:07:38.103Z,12.71
2019-05-09T22:10:04.695Z,12.72
2019-05-09T22:12:31.290Z,12.70
2019-05-09T22:14:57.871Z,12.69
2019-05-09T22:17:24.446Z,12.68
2019-05-09T22:19:51.278Z,12.66
2019-05-09T22:22:17.847Z,12.66
2019-05-09T22:24:44.448Z,12.67
2019-05-09T22:27:11.031Z,12.68
2019-05-09T22:29:37.622Z,12.69
2019-05-09T22:32:04.199Z,12.66
2019-05-09T22:34:30.827Z,12.67
2019-05-09T22:36:57.403Z,12.64
2019-05-09T22:39:24.063Z,12.64
2019-05-09T22:41:50.631Z,12.64
2019-05-09T22:44:17.231Z,12.63
2019-05-09T22:46:43.901Z,12.63
2019-05-09T22:49:10.503Z,12.65
2019-05-09T22:51:37.161Z,12.67
2019-05-09T22:54:12.410Z,12.70
2019-05-09T22:56:32.087Z,12.72
2019-05-09T22:58:58.692Z,12.74
2019-05-09T23:01:25.274Z,12.74
2019-05-09T23:03:51.931Z,12.74
2019-05-09T23:06:18.501Z,12.73
2019-05-09T23:08:45.117Z,12.73
2019-05-09T23:11:11.798Z,12.70
2019-05-09T23:13:38.389Z,12.69
2019-05-09T23:16:05.031Z,12.69
2019-05-09T23:18:31.635Z,12.68
2019-05-09T23:20:58.223Z,12.69
2019-05-09T23:23:24.861Z,12.71
2019-05-09T23:25:51.455Z,12.72
2019-05-09T23:28:18.027Z,12.74
2019-05-09T23:30:44.623Z,12.77
2019-05-09T23:33:11.193Z,12.77
2019-05-09T23:35:37.806Z,12.78
2019-05-09T23:38:04.384Z,12.79
2019-05-09T23:40:30.993Z,12.80
2019-05-09T23:42:57.574Z,12.80
2019-05-09T23:45:24.169Z,12.78
2019-05-09T23:47:50.747Z,12.74
2019-05-09T23:50:17.347Z,12.71
2019-05-09T23:52:43.919Z,12.69
2019-05-09T23:55:10.558Z,12.65
2019-05-09T23:57:37.159Z,12.64
